sensor_id;sensor_type;location;lat;lon;timestamp;P1;durP1;ratioP1;P2;durP2;ratioP2
43690;SDS011;29293;52.190;21.226;2023-03-01T00:11:03;83.70;;;35.70;;
43690;SDS011;29293;52.190;21.226;2023-03-01T00:26:14;88.70;;;37.10;;
43690;SDS011;29293;52.190;21.226;2023-03-01T00:41:23;88.20;;;37.10;;
43690;SDS011;29293;52.190;21.226;2023-03-01T00:56:33;117.30;;;44.10;;
43690;SDS011;29293;52.190;21.226;2023-03-01T01:11:41;106.00;;;45.10;;
43690;SDS011;29293;52.190;21.226;2023-03-01T01:26:49;122.90;;;48.80;;
43690;SDS011;29293;52.190;21.226;2023-03-01T01:41:57;115.90;;;47.50;;
43690;SDS011;29293;52.190;21.226;2023-03-01T01:57:06;122.20;;;48.30;;
43690;SDS011;29293;52.190;21.226;2023-03-01T02:12:18;125.70;;;49.70;;
43690;SDS011;29293;52.190;21.226;2023-03-01T02:27:31;100.00;;;40.90;;
43690;SDS011;29293;52.190;21.226;2023-03-01T02:42:45;111.50;;;45.80;;
43690;SDS011;29293;52.190;21.226;2023-03-01T02:58:00;111.40;;;45.60;;
43690;SDS011;29293;52.190;21.226;2023-03-01T03:13:10;111.20;;;44.40;;
43690;SDS011;29293;52.190;21.226;2023-03-01T03:28:19;105.50;;;43.80;;
43690;SDS011;29293;52.190;21.226;2023-03-01T03:43:28;104.20;;;42.80;;
43690;SDS011;29293;52.190;21.226;2023-03-01T03:58:38;108.00;;;41.70;;
43690;SDS011;29293;52.190;21.226;2023-03-01T04:13:45;93.60;;;39.20;;
43690;SDS011;29293;52.190;21.226;2023-03-01T04:28:54;94.30;;;39.80;;
43690;SDS011;29293;52.190;21.226;2023-03-01T04:44:01;97.60;;;41.00;;
43690;SDS011;29293;52.190;21.226;2023-03-01T04:59:09;104.60;;;41.60;;
43690;SDS011;29293;52.190;21.226;2023-03-01T05:14:17;103.40;;;40.30;;
43690;SDS011;29293;52.190;21.226;2023-03-01T05:29:25;106.90;;;42.30;;
43690;SDS011;29293;52.190;21.226;2023-03-01T05:44:35;92.70;;;37.50;;
43690;SDS011;29293;52.190;21.226;2023-03-01T05:59:43;94.40;;;39.40;;
43690;SDS011;29293;52.190;21.226;2023-03-01T06:14:52;98.80;;;41.70;;
43690;SDS011;29293;52.190;21.226;2023-03-01T06:29:59;97.30;;;42.90;;
43690;SDS011;29293;52.190;21.226;2023-03-01T06:45:08;94.90;;;40.90;;
43690;SDS011;29293;52.190;21.226;2023-03-01T07:00:18;98.00;;;41.70;;
43690;SDS011;29293;52.190;21.226;2023-03-01T07:15:26;100.60;;;42.40;;
43690;SDS011;29293;52.190;21.226;2023-03-01T07:30:35;90.00;;;40.70;;
43690;SDS011;29293;52.190;21.226;2023-03-01T07:45:44;84.00;;;38.40;;
43690;SDS011;29293;52.190;21.226;2023-03-01T08:00:52;70.60;;;32.40;;
43690;SDS011;29293;52.190;21.226;2023-03-01T08:16:01;65.10;;;29.40;;
43690;SDS011;29293;52.190;21.226;2023-03-01T08:31:14;58.40;;;27.60;;
43690;SDS011;29293;52.190;21.226;2023-03-01T08:46:24;47.40;;;22.00;;
43690;SDS011;29293;52.190;21.226;2023-03-01T09:01:33;42.80;;;19.60;;
43690;SDS011;29293;52.190;21.226;2023-03-01T09:16:41;42.90;;;21.50;;
43690;SDS011;29293;52.190;21.226;2023-03-01T09:31:51;38.70;;;20.20;;
43690;SDS011;29293;52.190;21.226;2023-03-01T09:47:01;48.50;;;22.70;;
43690;SDS011;29293;52.190;21.226;2023-03-01T10:02:17;36.50;;;19.90;;
43690;SDS011;29293;52.190;21.226;2023-03-01T10:17:35;35.30;;;18.50;;
43690;SDS011;29293;52.190;21.226;2023-03-01T10:32:48;52.80;;;25.70;;
43690;SDS011;29293;52.190;21.226;2023-03-01T10:48:13;43.70;;;21.20;;
43690;SDS011;29293;52.190;21.226;2023-03-01T11:03:25;45.50;;;19.60;;
43690;SDS011;29293;52.190;21.226;2023-03-01T11:18:44;30.60;;;17.20;;
43690;SDS011;29293;52.190;21.226;2023-03-01T11:34:07;30.60;;;15.20;;
43690;SDS011;29293;52.190;21.226;2023-03-01T11:49:33;28.30;;;15.00;;
43690;SDS011;29293;52.190;21.226;2023-03-01T12:05:31;27.20;;;14.30;;
43690;SDS011;29293;52.190;21.226;2023-03-01T12:20:58;29.70;;;15.50;;
43690;SDS011;29293;52.190;21.226;2023-03-01T12:36:24;24.20;;;14.10;;
43690;SDS011;29293;52.190;21.226;2023-03-01T12:51:58;25.40;;;13.90;;
43690;SDS011;29293;52.190;21.226;2023-03-01T13:07:16;23.50;;;13.00;;
43690;SDS011;29293;52.190;21.226;2023-03-01T13:22:35;19.50;;;10.80;;
43690;SDS011;29293;52.190;21.226;2023-03-01T13:37:44;21.90;;;9.50;;
43690;SDS011;29293;52.190;21.226;2023-03-01T13:52:57;19.60;;;10.30;;
43690;SDS011;29293;52.190;21.226;2023-03-01T14:23:35;22.40;;;12.90;;
43690;SDS011;29293;52.190;21.226;2023-03-01T14:38:48;23.00;;;13.20;;
43690;SDS011;29293;52.190;21.226;2023-03-01T14:53:57;23.10;;;12.10;;
43690;SDS011;29293;52.190;21.226;2023-03-01T15:09:07;22.00;;;11.90;;
43690;SDS011;29293;52.190;21.226;2023-03-01T15:24:24;24.70;;;12.70;;
43690;SDS011;29293;52.190;21.226;2023-03-01T15:39:35;21.40;;;11.80;;
43690;SDS011;29293;52.190;21.226;2023-03-01T15:54:48;21.70;;;11.30;;
43690;SDS011;29293;52.190;21.226;2023-03-01T16:09:58;27.60;;;13.00;;
43690;SDS011;29293;52.190;21.226;2023-03-01T16:25:08;17.90;;;10.00;;
43690;SDS011;29293;52.190;21.226;2023-03-01T16:40:18;21.30;;;11.50;;
43690;SDS011;29293;52.190;21.226;2023-03-01T16:55:29;32.90;;;12.90;;
43690;SDS011;29293;52.190;21.226;2023-03-01T17:10:38;22.30;;;10.50;;
43690;SDS011;29293;52.190;21.226;2023-03-01T17:25:48;30.70;;;15.30;;
43690;SDS011;29293;52.190;21.226;2023-03-01T17:41:00;37.50;;;18.40;;
43690;SDS011;29293;52.190;21.226;2023-03-01T17:56:09;33.70;;;16.40;;
43690;SDS011;29293;52.190;21.226;2023-03-01T18:11:20;41.50;;;17.80;;
43690;SDS011;29293;52.190;21.226;2023-03-01T18:26:31;47.30;;;22.70;;
43690;SDS011;29293;52.190;21.226;2023-03-01T18:41:49;41.70;;;20.80;;
43690;SDS011;29293;52.190;21.226;2023-03-01T18:57:04;50.70;;;22.80;;
43690;SDS011;29293;52.190;21.226;2023-03-01T19:12:13;57.40;;;26.30;;
43690;SDS011;29293;52.190;21.226;2023-03-01T19:27:30;51.60;;;23.90;;
43690;SDS011;29293;52.190;21.226;2023-03-01T19:42:40;51.90;;;25.30;;
43690;SDS011;29293;52.190;21.226;2023-03-01T19:57:51;62.10;;;27.50;;
43690;SDS011;29293;52.190;21.226;2023-03-01T20:13:02;73.40;;;32.30;;
43690;SDS011;29293;52.190;21.226;2023-03-01T20:28:32;74.90;;;34.20;;
43690;SDS011;29293;52.190;21.226;2023-03-01T20:43:42;76.80;;;33.60;;
43690;SDS011;29293;52.190;21.226;2023-03-01T20:58:58;70.30;;;33.70;;
43690;SDS011;29293;52.190;21.226;2023-03-01T21:14:08;84.20;;;38.60;;
43690;SDS011;29293;52.190;21.226;2023-03-01T21:29:18;80.60;;;37.90;;
43690;SDS011;29293;52.190;21.226;2023-03-01T21:44:28;68.90;;;31.60;;
43690;SDS011;29293;52.190;21.226;2023-03-01T21:59:38;69.20;;;31.30;;
43690;SDS011;29293;52.190;21.226;2023-03-01T22:14:47;69.00;;;31.30;;
43690;SDS011;29293;52.190;21.226;2023-03-01T22:29:57;90.00;;;42.30;;
43690;SDS011;29293;52.190;21.226;2023-03-01T22:45:08;95.10;;;44.70;;
43690;SDS011;29293;52.190;21.226;2023-03-01T23:00:19;97.70;;;45.20;;
43690;SDS011;29293;52.190;21.226;2023-03-01T23:15:31;95.70;;;46.00;;
43690;SDS011;29293;52.190;21.226;2023-03-01T23:30:41;89.50;;;41.60;;
43690;SDS011;29293;52.190;21.226;2023-03-01T23:45:59;91.50;;;39.20;;
